Woodlawn, Tennessee
Current Conditions -  °F | °C
As of 7:52 PM on Monday 20 Oct 2014 (Local Time) from KCKV Reporting Station
Clear Clear  
Wind Chill: 60°   Ceiling: Unl
Heat Index: 60°   Visibility: 10mi
Dew Point: 52°   Wind: 3mph
Humidity: 75%   Direction: 210°SSW
Pressure: 29.98"   Gusts: NA
Location:  36.54°N, 87.51°W
Report Text: KCKV 210052Z AUTO 21003KT 10SM CLR 16/11 A2998 RMK AO2 SLP153 T01560111
Loading
Personal Weather Stations






























Interactive Weather Map New forecast layout! Learn more

10-Day Weather Forecast

Advertisements
Track Severe Weather on mobile